Time,TemperatureF,DewpointF,PressureIn,WindDirection,WindDirectionDegrees,WindSpeedMPH,WindSpeedGustMPH,Humidity,HourlyPrecipIn,Conditions,Clouds,dailyrainin,SoftwareType,DateUTC
2013-04-29 00:00:00,52.7,38.0,30.22,East,82,0.0,-999.0,58,-99.99,,,0.00,weatherlink.com 1.10,2013-04-29 04:00:00,
2013-04-29 00:15:00,52.7,39.0,30.22,East,84,3.0,-999.0,60,-99.99,,,0.00,weatherlink.com 1.10,2013-04-29 04:15:00,
2013-04-29 00:30:00,52.6,38.0,30.22,East,101,0.0,-999.0,59,-99.99,,,0.00,weatherlink.com 1.10,2013-04-29 04:30:00,
2013-04-29 00:45:00,51.9,40.0,30.22,SE,132,0.0,-999.0,65,-99.99,,,0.00,weatherlink.com 1.10,2013-04-29 04:45:00,
2013-04-29 01:00:00,51.2,41.0,30.21,ESE,119,4.0,-999.0,67,-99.99,,,0.00,weatherlink.com 1.10,2013-04-29 05:00:00,
2013-04-29 01:15:00,50.8,41.0,30.21,ESE,119,1.0,-999.0,69,-99.99,,,0.00,weatherlink.com 1.10,2013-04-29 05:15:00,
2013-04-29 01:30:00,51.1,41.0,30.20,ESE,103,0.0,-999.0,69,-99.99,,,0.00,weatherlink.com 1.10,2013-04-29 05:30:00,
2013-04-29 01:46:00,51.3,42.0,30.20,ESE,123,1.0,-999.0,70,-99.99,,,0.00,weatherlink.com 1.10,2013-04-29 05:46:00,
2013-04-29 02:01:00,51.1,42.0,30.19,SE,135,1.0,-999.0,71,-99.99,,,0.00,weatherlink.com 1.10,2013-04-29 06:01:00,
2013-04-29 02:17:00,51.2,42.0,30.19,ESE,112,1.0,-999.0,71,-99.99,,,0.00,weatherlink.com 1.10,2013-04-29 06:17:00,
2013-04-29 02:31:00,51.4,42.0,30.19,SE,124,1.0,-999.0,71,-99.99,,,0.00,weatherlink.com 1.10,2013-04-29 06:31:00,
2013-04-29 02:46:00,51.3,43.0,30.19,SE,135,2.0,-999.0,73,-99.99,,,0.00,weatherlink.com 1.10,2013-04-29 06:46:00,
2013-04-29 03:02:00,50.8,44.0,30.18,SE,135,1.0,-999.0,76,-99.99,,,0.01,weatherlink.com 1.10,2013-04-29 07:02:00,
2013-04-29 03:17:00,50.5,44.0,30.18,SE,134,2.0,-999.0,77,-99.99,,,0.01,weatherlink.com 1.10,2013-04-29 07:17:00,
2013-04-29 03:33:00,50.5,44.0,30.18,SE,131,0.0,-999.0,78,-99.99,,,0.01,weatherlink.com 1.10,2013-04-29 07:33:00,
2013-04-29 03:48:00,50.6,44.0,30.17,SE,136,1.0,-999.0,78,-99.99,,,0.01,weatherlink.com 1.10,2013-04-29 07:48:00,
2013-04-29 04:03:00,50.7,44.0,30.18,SE,138,2.0,-999.0,79,-99.99,,,0.01,weatherlink.com 1.10,2013-04-29 08:03:00,
2013-04-29 04:18:00,50.6,45.0,30.18,ESE,117,2.0,-999.0,80,-99.99,,,0.01,weatherlink.com 1.10,2013-04-29 08:18:00,
2013-04-29 04:33:00,50.1,45.0,30.18,ESE,117,0.0,-999.0,82,-99.99,,,0.01,weatherlink.com 1.10,2013-04-29 08:33:00,
2013-04-29 04:50:00,49.9,45.0,30.18,ESE,123,2.0,-999.0,83,-99.99,,,0.01,weatherlink.com 1.10,2013-04-29 08:50:00,
2013-04-29 05:05:00,49.9,45.0,30.17,SE,130,2.0,-999.0,84,-99.99,,,0.01,weatherlink.com 1.10,2013-04-29 09:05:00,
2013-04-29 05:20:00,49.9,46.0,30.17,ESE,109,2.0,-999.0,85,-99.99,,,0.02,weatherlink.com 1.10,2013-04-29 09:20:00,
2013-04-29 05:35:00,49.8,46.0,30.17,SE,126,2.0,-999.0,86,-99.99,,,0.02,weatherlink.com 1.10,2013-04-29 09:35:00,
2013-04-29 05:50:00,49.9,46.0,30.17,ESE,104,4.0,-999.0,86,-99.99,,,0.02,weatherlink.com 1.10,2013-04-29 09:50:00,
2013-04-29 06:05:00,49.9,46.0,30.17,ESE,119,2.0,-999.0,87,-99.99,,,0.02,weatherlink.com 1.10,2013-04-29 10:05:00,
2013-04-29 06:20:00,50.0,46.0,30.18,East,96,4.0,-999.0,87,-99.99,,,0.02,weatherlink.com 1.10,2013-04-29 10:20:00,
2013-04-29 06:36:00,50.1,46.0,30.18,SE,132,6.0,-999.0,87,-99.99,,,0.02,weatherlink.com 1.10,2013-04-29 10:36:00,
2013-04-29 06:51:00,50.1,47.0,30.18,ESE,106,5.0,-999.0,88,-99.99,,,0.02,weatherlink.com 1.10,2013-04-29 10:51:00,
2013-04-29 07:06:00,50.1,47.0,30.18,ESE,121,9.0,-999.0,89,-99.99,,,0.02,weatherlink.com 1.10,2013-04-29 11:06:00,
2013-04-29 07:22:00,50.1,47.0,30.18,ESE,107,4.0,-999.0,89,-99.99,,,0.02,weatherlink.com 1.10,2013-04-29 11:22:00,
2013-04-29 07:37:00,50.1,47.0,30.18,SE,129,7.0,-999.0,90,-99.99,,,0.02,weatherlink.com 1.10,2013-04-29 11:37:00,
2013-04-29 07:52:00,50.1,47.0,30.19,ESE,108,2.0,-999.0,90,-99.99,,,0.02,weatherlink.com 1.10,2013-04-29 11:52:00,
2013-04-29 08:10:00,50.1,48.0,30.18,ESE,105,6.0,-999.0,91,-99.99,,,0.02,weatherlink.com 1.10,2013-04-29 12:10:00,
2013-04-29 08:23:00,50.1,47.0,30.18,ESE,119,6.0,-999.0,90,-99.99,,,0.02,weatherlink.com 1.10,2013-04-29 12:23:00,
2013-04-29 08:38:00,50.1,48.0,30.19,ESE,109,5.0,-999.0,91,-99.99,,,0.03,weatherlink.com 1.10,2013-04-29 12:38:00,
2013-04-29 08:53:00,50.1,48.0,30.19,ESE,115,0.0,-999.0,91,-99.99,,,0.03,weatherlink.com 1.10,2013-04-29 12:53:00,
2013-04-29 09:09:00,50.1,47.0,30.19,ESE,103,11.0,-999.0,90,-99.99,,,0.03,weatherlink.com 1.10,2013-04-29 13:09:00,
2013-04-29 09:25:00,50.2,47.0,30.18,ESE,121,4.0,-999.0,90,-99.99,,,0.04,weatherlink.com 1.10,2013-04-29 13:25:00,
2013-04-29 09:40:00,50.2,47.0,30.18,SSE,155,9.0,-999.0,90,-99.99,,,0.04,weatherlink.com 1.10,2013-04-29 13:40:00,
2013-04-29 09:55:00,50.3,48.0,30.18,ESE,108,5.0,-999.0,90,-99.99,,,0.04,weatherlink.com 1.10,2013-04-29 13:55:00,
2013-04-29 10:10:00,50.5,48.0,30.18,SE,139,7.0,-999.0,91,-99.99,,,0.04,weatherlink.com 1.10,2013-04-29 14:10:00,
2013-04-29 10:25:00,50.4,48.0,30.18,SE,132,11.0,-999.0,90,-99.99,,,0.04,weatherlink.com 1.10,2013-04-29 14:25:00,
2013-04-29 10:40:00,50.4,48.0,30.18,SE,129,5.0,-999.0,90,-99.99,,,0.04,weatherlink.com 1.10,2013-04-29 14:40:00,
2013-04-29 10:55:00,50.5,48.0,30.18,East,101,4.0,-999.0,90,-99.99,,,0.04,weatherlink.com 1.10,2013-04-29 14:55:00,
2013-04-29 11:10:00,50.4,48.0,30.18,ESE,109,8.0,-999.0,90,-99.99,,,0.04,weatherlink.com 1.10,2013-04-29 15:10:00,
2013-04-29 11:26:00,50.4,48.0,30.18,ESE,112,6.0,-999.0,91,-99.99,,,0.04,weatherlink.com 1.10,2013-04-29 15:26:00,
2013-04-29 11:41:00,50.3,48.0,30.18,ESE,110,7.0,-999.0,91,-99.99,,,0.06,weatherlink.com 1.10,2013-04-29 15:41:00,
2013-04-29 11:56:00,50.3,48.0,30.17,SE,134,7.0,-999.0,92,-99.99,,,0.07,weatherlink.com 1.10,2013-04-29 15:56:00,
2013-04-29 12:12:00,50.3,48.0,30.17,SSE,158,8.0,-999.0,92,-99.99,,,0.08,weatherlink.com 1.10,2013-04-29 16:12:00,
2013-04-29 12:27:00,50.2,48.0,30.17,ESE,106,4.0,-999.0,92,-99.99,,,0.10,weatherlink.com 1.10,2013-04-29 16:27:00,
2013-04-29 12:42:00,50.3,48.0,30.17,SE,129,7.0,-999.0,92,-99.99,,,0.11,weatherlink.com 1.10,2013-04-29 16:42:00,
2013-04-29 12:57:00,50.3,48.0,30.16,ESE,106,2.0,-999.0,93,-99.99,,,0.12,weatherlink.com 1.10,2013-04-29 16:57:00,
2013-04-29 13:12:00,50.5,49.0,30.16,SE,128,6.0,-999.0,93,-99.99,,,0.13,weatherlink.com 1.10,2013-04-29 17:12:00,
2013-04-29 13:31:00,50.7,49.0,30.16,SE,132,4.0,-999.0,93,-99.99,,,0.15,weatherlink.com 1.10,2013-04-29 17:31:00,
2013-04-29 13:43:00,50.8,49.0,30.16,East,98,5.0,-999.0,93,-99.99,,,0.15,weatherlink.com 1.10,2013-04-29 17:43:00,
2013-04-29 13:58:00,50.9,49.0,30.16,ESE,116,7.0,-999.0,93,-99.99,,,0.15,weatherlink.com 1.10,2013-04-29 17:58:00,
2013-04-29 14:15:00,51.1,49.0,30.16,SE,130,6.0,-999.0,93,-99.99,,,0.15,weatherlink.com 1.10,2013-04-29 18:15:00,
2013-04-29 14:30:00,51.1,49.0,30.16,ESE,116,6.0,-999.0,93,-99.99,,,0.15,weatherlink.com 1.10,2013-04-29 18:30:00,
2013-04-29 14:45:00,51.3,49.0,30.15,ESE,111,6.0,-999.0,93,-99.99,,,0.16,weatherlink.com 1.10,2013-04-29 18:45:00,
2013-04-29 15:00:00,51.2,49.0,30.15,SE,132,6.0,-999.0,93,-99.99,,,0.16,weatherlink.com 1.10,2013-04-29 19:00:00,
2013-04-29 15:15:00,50.8,49.0,30.15,SE,136,9.0,-999.0,93,-99.99,,,0.16,weatherlink.com 1.10,2013-04-29 19:15:00,
2013-04-29 15:30:00,50.5,49.0,30.15,SE,142,4.0,-999.0,93,-99.99,,,0.16,weatherlink.com 1.10,2013-04-29 19:30:00,
2013-04-29 15:45:00,50.5,49.0,30.15,ESE,116,4.0,-999.0,93,-99.99,,,0.16,weatherlink.com 1.10,2013-04-29 19:45:00,
2013-04-29 16:01:00,50.5,49.0,30.14,SE,134,5.0,-999.0,93,-99.99,,,0.16,weatherlink.com 1.10,2013-04-29 20:01:00,
2013-04-29 16:16:00,50.5,49.0,30.14,SE,144,8.0,-999.0,94,-99.99,,,0.16,weatherlink.com 1.10,2013-04-29 20:16:00,
2013-04-29 16:31:00,50.5,49.0,30.14,SE,129,7.0,-999.0,94,-99.99,,,0.16,weatherlink.com 1.10,2013-04-29 20:31:00,
2013-04-29 16:46:00,50.5,49.0,30.14,ESE,114,7.0,-999.0,94,-99.99,,,0.17,weatherlink.com 1.10,2013-04-29 20:46:00,
2013-04-29 17:02:00,50.5,49.0,30.14,SE,133,11.0,-999.0,94,-99.99,,,0.17,weatherlink.com 1.10,2013-04-29 21:02:00,
2013-04-29 17:17:00,50.6,49.0,30.15,ESE,109,8.0,-999.0,94,-99.99,,,0.17,weatherlink.com 1.10,2013-04-29 21:17:00,
2013-04-29 17:32:00,50.6,49.0,30.15,SE,125,7.0,-999.0,94,-99.99,,,0.17,weatherlink.com 1.10,2013-04-29 21:32:00,
2013-04-29 17:47:00,50.7,49.0,30.15,SE,124,6.0,-999.0,94,-99.99,,,0.17,weatherlink.com 1.10,2013-04-29 21:47:00,
2013-04-29 18:02:00,50.7,49.0,30.15,ESE,118,6.0,-999.0,94,-99.99,,,0.17,weatherlink.com 1.10,2013-04-29 22:02:00,
2013-04-29 18:18:00,50.8,49.0,30.15,SE,126,6.0,-999.0,94,-99.99,,,0.17,weatherlink.com 1.10,2013-04-29 22:18:00,
2013-04-29 18:33:00,50.8,49.0,30.15,SE,130,13.0,-999.0,94,-99.99,,,0.17,weatherlink.com 1.10,2013-04-29 22:33:00,
2013-04-29 18:49:00,50.8,49.0,30.15,ESE,114,4.0,-999.0,94,-99.99,,,0.17,weatherlink.com 1.10,2013-04-29 22:49:00,
2013-04-29 19:03:00,50.8,50.0,30.16,East,98,6.0,-999.0,95,-99.99,,,0.17,weatherlink.com 1.10,2013-04-29 23:03:00,
2013-04-29 19:20:00,51.0,50.0,30.15,ESE,103,4.0,-999.0,95,-99.99,,,0.17,weatherlink.com 1.10,2013-04-29 23:20:00,
2013-04-29 19:35:00,51.0,50.0,30.16,SE,124,5.0,-999.0,95,-99.99,,,0.17,weatherlink.com 1.10,2013-04-29 23:35:00,
2013-04-29 19:50:00,51.1,50.0,30.16,East,98,9.0,-999.0,95,-99.99,,,0.17,weatherlink.com 1.10,2013-04-29 23:50:00,
2013-04-29 20:05:00,51.1,50.0,30.16,ESE,120,6.0,-999.0,95,-99.99,,,0.17,weatherlink.com 1.10,2013-04-30 00:05:00,
2013-04-29 20:20:00,51.1,50.0,30.17,ESE,117,5.0,-999.0,95,-99.99,,,0.17,weatherlink.com 1.10,2013-04-30 00:20:00,
2013-04-29 20:35:00,51.1,50.0,30.17,ESE,114,8.0,-999.0,95,-99.99,,,0.17,weatherlink.com 1.10,2013-04-30 00:35:00,
2013-04-29 20:50:00,51.1,50.0,30.17,ENE,78,3.0,-999.0,95,-99.99,,,0.17,weatherlink.com 1.10,2013-04-30 00:50:00,
2013-04-29 21:06:00,51.1,50.0,30.18,SE,124,2.0,-999.0,95,-99.99,,,0.17,weatherlink.com 1.10,2013-04-30 01:06:00,
2013-04-29 21:21:00,51.2,50.0,30.19,ESE,119,5.0,-999.0,95,-99.99,,,0.17,weatherlink.com 1.10,2013-04-30 01:21:00,
2013-04-29 21:36:00,51.3,50.0,30.19,SE,136,6.0,-999.0,95,-99.99,,,0.17,weatherlink.com 1.10,2013-04-30 01:36:00,
2013-04-29 21:51:00,51.4,50.0,30.19,ESE,123,6.0,-999.0,95,-99.99,,,0.18,weatherlink.com 1.10,2013-04-30 01:51:00,
2013-04-29 22:07:00,51.4,50.0,30.19,East,88,6.0,-999.0,95,-99.99,,,0.18,weatherlink.com 1.10,2013-04-30 02:07:00,
2013-04-29 22:22:00,51.3,50.0,30.20,ESE,121,6.0,-999.0,95,-99.99,,,0.18,weatherlink.com 1.10,2013-04-30 02:22:00,
2013-04-29 22:37:00,51.2,50.0,30.20,SE,134,2.0,-999.0,95,-99.99,,,0.18,weatherlink.com 1.10,2013-04-30 02:37:00,
2013-04-29 22:52:00,51.2,50.0,30.20,SE,145,4.0,-999.0,95,-99.99,,,0.18,weatherlink.com 1.10,2013-04-30 02:52:00,
2013-04-29 23:08:00,51.0,50.0,30.20,ESE,114,4.0,-999.0,95,-99.99,,,0.18,weatherlink.com 1.10,2013-04-30 03:08:00,
2013-04-29 23:23:00,50.8,50.0,30.20,East,99,4.0,-999.0,95,-99.99,,,0.18,weatherlink.com 1.10,2013-04-30 03:23:00,
2013-04-29 23:38:00,50.5,49.0,30.20,ESE,118,4.0,-999.0,95,-99.99,,,0.18,weatherlink.com 1.10,2013-04-30 03:38:00,
2013-04-29 23:53:00,50.3,49.0,30.20,East,90,6.0,-999.0,95,-99.99,,,0.18,weatherlink.com 1.10,2013-04-30 03:53:00,